Time;durP1;ratioP1;P1;durP2;ratioP2;P2;SDS_P1;SDS_P2;PMS_P1;PMS_P2;Temp;Humidity;BMP_temperature;BMP_pressure;BME280_temperature;BME280_humidity;BME280_pressure;Samples;Min_cycle;Max_cycle;Signal;HPM_P1;HPM_P2
2023/04/11 00:02:03;;;;;;;;;;;;;;;11.48;nan;100126.75;5018415;28;19944;-85
2023/04/11 00:04:28;;;;;;;;;;;;;;;11.52;nan;100122.78;5033290;28;20342;-85
2023/04/11 00:06:53;;;;;;;;;;;;;;;11.48;nan;100122.28;5018422;28;19920;-85
2023/04/11 00:09:19;;;;;;;;;;;;;;;11.47;nan;100127.75;5035732;28;20294;-83
2023/04/11 00:11:45;;;;;;;;;;;;;;;11.43;nan;100127.25;5018043;28;19949;-83
2023/04/11 00:14:11;;;;;;;;;;;;;;;11.43;nan;100129.06;5032349;28;20432;-85
2023/04/11 00:16:36;;;;;;;;;;;;;;;11.39;nan;100133.88;5016106;28;19913;-86
2023/04/11 00:19:01;;;;;;;;;;;;;;;11.37;nan;100149.09;5034435;28;19919;-85
2023/04/11 00:21:26;;;;;;;;;;;;;;;11.37;nan;100151.75;5019411;28;20055;-87
2023/04/11 00:23:52;;;;;;;;;;;;;;;11.37;nan;100138.53;5017393;28;20437;-85
2023/04/11 00:26:26;;;;;;;;;;;;;;;11.38;nan;100134.88;5068260;23;20554;-84
2023/04/11 00:28:56;;;;;;;;;;;;;;;11.33;nan;100134.53;5046023;28;19920;-84
2023/04/11 00:31:23;;;;;;;;;;;;;;;11.35;nan;100126.44;5047091;28;19921;-84
2023/04/11 00:34:10;;;;;;;;;;;;;;;11.33;nan;100120.50;5033971;28;19913;-86
2023/04/11 00:36:45;;;;;;;;;;;;;;;11.36;nan;100117.50;5050160;28;19976;-84
2023/04/11 00:39:33;;;;;;;;;;;;;;;11.35;nan;100124.63;5018603;28;20581;-85
2023/04/11 00:42:07;;;;;;;;;;;;;;;11.36;nan;100120.97;5031537;28;19917;-85
2023/04/11 00:44:41;;;;;;;;;;;;;;;11.29;nan;100145.63;5039126;28;19981;-85
2023/04/11 00:47:35;;;;;;;;;;;;;;;11.27;nan;100154.56;5003117;28;19920;-85
2023/04/11 00:50:08;;;;;;;;;;;;;;;11.27;nan;100125.47;5022337;28;19920;-85
2023/04/11 00:52:40;;;;;;;;;;;;;;;11.29;nan;100137.69;5041563;28;19931;-86
2023/04/11 00:55:07;;;;;;;;;;;;;;;11.24;nan;100119.66;5029705;28;19921;-85
2023/04/11 00:57:48;;;;;;;;;;;;;;;;;;;;;
2023/04/11 01:00:40;;;;;;;;;;;;;;;11.19;nan;100104.28;5037425;28;20091;-85
2023/04/11 01:03:05;;;;;;;;;;;;;;;11.19;nan;100093.69;4998883;28;19980;-84
2023/04/11 01:05:32;;;;;;;;;;;;;;;11.14;nan;100096.00;5026864;28;19949;-84
2023/04/11 01:07:58;;;;;;;;;;;;;;;11.14;nan;100105.78;5039449;28;19917;-84
2023/04/11 01:10:27;;;;;;;;;;;;;;;11.13;nan;100093.50;5041707;28;19921;-85
2023/04/11 01:12:53;;;;;;;;;;;;;;;11.11;nan;100103.44;5032968;28;19913;-85
2023/04/11 01:15:18;;;;;;;;;;;;;;;11.07;nan;100105.59;5054133;28;20038;-85
2023/04/11 01:17:46;;;;;;;;;;;;;;;11.01;nan;100107.09;5036761;28;20009;-84
2023/04/11 01:20:12;;;;;;;;;;;;;;;10.99;nan;100118.84;5040799;28;20345;-85
2023/04/11 01:22:40;;;;;;;;;;;;;;;10.99;nan;100129.44;5057870;28;19924;-85
2023/04/11 01:25:05;;;;;;;;;;;;;;;10.95;nan;100128.91;5041700;28;19917;-84
2023/04/11 01:27:32;;;;;;;;;;;;;;;10.92;nan;100136.34;5041836;28;19938;-85
2023/04/11 01:29:58;;;;;;;;;;;;;;;10.89;nan;100148.06;5029445;28;19959;-86
2023/04/11 01:32:23;;;;;;;;;;;;;;;10.87;nan;100160.66;5045294;28;19932;-86
2023/04/11 01:34:50;;;;;;;;;;;;;;;10.86;nan;100174.03;5036132;28;20374;-85
2023/04/11 01:37:15;;;;;;;;;;;;;;;10.86;nan;100164.28;5037268;28;19917;-84
2023/04/11 01:39:40;;;;;;;;;;;;;;;10.86;nan;100161.63;5034771;28;19925;-84
2023/04/11 01:42:06;;;;;;;;;;;;;;;10.87;nan;100165.94;5043614;28;19917;-85
2023/04/11 01:44:32;;;;;;;;;;;;;;;10.86;nan;100160.81;5037953;28;20003;-85
2023/04/11 01:46:57;;;;;;;;;;;;;;;10.88;nan;100169.41;5054327;28;19920;-85
2023/04/11 01:49:23;;;;;;;;;;;;;;;10.84;nan;100171.53;5023019;28;20521;-86
2023/04/11 01:51:48;;;;;;;;;;;;;;;10.81;nan;100172.69;5050796;28;20576;-86
2023/04/11 01:54:13;;;;;;;;;;;;;;;10.82;nan;100170.88;5025061;28;19975;-86
2023/04/11 01:56:38;;;;;;;;;;;;;;;10.77;nan;100184.59;5037935;28;20014;-85
2023/04/11 01:59:03;;;;;;;;;;;;;;;10.74;nan;100176.16;5029576;28;19995;-86
2023/04/11 02:01:29;;;;;;;;;;;;;;;10.65;nan;100170.00;5036378;28;19976;-85
2023/04/11 02:03:54;;;;;;;;;;;;;;;10.61;nan;100166.03;5028968;28;19920;-85
2023/04/11 02:06:19;;;;;;;;;;;;;;;10.58;nan;100161.91;5024074;28;19935;-85
2023/04/11 02:08:45;;;;;;;;;;;;;;;10.56;nan;100152.47;5041136;28;19916;-84
2023/04/11 02:11:10;;;;;;;;;;;;;;;10.56;nan;100149.84;5050532;28;20016;-84
2023/04/11 02:13:35;;;;;;;;;;;;;;;10.53;nan;100147.50;5033190;28;19951;-84
2023/04/11 02:16:05;;;;;;;;;;;;;;;10.50;nan;100148.66;5025612;28;20370;-85
2023/04/11 02:18:30;;;;;;;;;;;;;;;10.48;nan;100150.63;5044331;28;19977;-86
2023/04/11 02:20:55;;;;;;;;;;;;;;;10.43;nan;100160.84;5046521;28;19917;-86
2023/04/11 02:23:21;;;;;;;;;;;;;;;10.38;nan;100177.19;5050389;28;20338;-86
2023/04/11 02:25:46;;;;;;;;;;;;;;;10.36;nan;100171.22;5032243;28;19924;-86
2023/04/11 02:28:14;;;;;;;;;;;;;;;10.33;nan;100173.38;5052700;28;20390;-86
2023/04/11 02:30:39;;;;;;;;;;;;;;;10.23;nan;100173.47;5048838;28;19920;-85
2023/04/11 02:33:07;;;;;;;;;;;;;;;10.18;nan;100173.94;5030761;28;19920;-86
2023/04/11 02:35:33;;;;;;;;;;;;;;;10.10;nan;100167.78;5054302;28;19917;-86
2023/04/11 02:37:58;;;;;;;;;;;;;;;10.07;nan;100155.72;5033537;28;19913;-87
2023/04/11 02:40:24;;;;;;;;;;;;;;;9.96;nan;100163.91;5040217;28;20069;-87
2023/04/11 02:42:49;;;;;;;;;;;;;;;9.85;nan;100165.00;5053001;28;19913;-85
2023/04/11 02:45:15;;;;;;;;;;;;;;;9.73;nan;100168.91;5049742;28;19917;-87
2023/04/11 02:47:40;;;;;;;;;;;;;;;9.63;nan;100168.16;5036948;28;19913;-86
2023/04/11 02:50:06;;;;;;;;;;;;;;;9.51;nan;100180.75;5050997;28;19913;-87
2023/04/11 02:52:32;;;;;;;;;;;;;;;9.43;nan;100181.53;5033848;28;20111;-87
2023/04/11 02:54:59;;;;;;;;;;;;;;;9.34;nan;100183.28;5033524;28;19920;-87
2023/04/11 02:57:31;;;;;;;;;;;;;;;9.22;nan;100189.75;5054544;22;19938;-86
2023/04/11 03:00:20;;;;;;;;;;;;;;;9.12;nan;100183.75;5020137;28;19923;-86
2023/04/11 03:05:57;;;;;;;;;;;;;;;8.93;nan;100198.72;4995477;28;20027;-87
2023/04/11 03:08:36;;;;;;;;;;;;;;;8.88;nan;100205.44;4949318;28;20916;-86
2023/04/11 03:11:02;;;;;;;;;;;;;;;8.80;nan;100203.53;5002513;28;20334;-86
2023/04/11 03:13:38;;;;;;;;;;;;;;;8.79;nan;100203.69;4991965;28;19913;-87
2023/04/11 03:16:34;;;;;;;;;;;;;;;8.84;nan;100204.06;5018381;23;19927;-86
2023/04/11 03:19:13;;;;;;;;;;;;;;;8.84;nan;100197.00;5015655;28;20440;-87
2023/04/11 03:21:41;;;;;;;;;;;;;;;8.81;nan;100192.00;5012570;28;19909;-87
2023/04/11 03:24:07;;;;;;;;;;;;;;;8.80;nan;100198.25;5034223;28;20413;-87
2023/04/11 03:30:12;;;;;;;;;;;;;;;;;;;;;
2023/04/11 03:32:45;;;;;;;;;;;;;;;8.80;nan;100206.19;5029920;28;20400;-86
2023/04/11 03:35:21;;;;;;;;;;;;;;;;;;;;;
2023/04/11 03:37:52;;;;;;;;;;;;;;;8.77;nan;100197.72;5043636;28;19927;-86
2023/04/11 03:40:29;;;;;;;;;;;;;;;8.78;nan;100196.75;5031776;28;19916;-87
2023/04/11 03:43:15;;;;;;;;;;;;;;;8.80;nan;100200.09;5048897;28;20448;-87
2023/04/11 03:45:54;;;;;;;;;;;;;;;8.83;nan;100194.50;5035473;28;20411;-87
2023/04/11 03:48:29;;;;;;;;;;;;;;;8.83;nan;100202.41;5020420;28;19966;-87
2023/04/11 03:51:03;;;;;;;;;;;;;;;8.78;nan;100188.84;5026042;28;19936;-87
2023/04/11 03:53:35;;;;;;;;;;;;;;;8.74;nan;100196.22;5006904;28;19951;-87
2023/04/11 03:56:00;;;;;;;;;;;;;;;8.69;nan;100211.66;5022314;28;19959;-87
2023/04/11 03:58:26;;;;;;;;;;;;;;;8.65;nan;100212.91;5037436;28;19955;-87
2023/04/11 04:00:56;;;;;;;;;;;;;;;8.65;nan;100224.31;5041849;28;19924;-87
2023/04/11 04:03:22;;;;;;;;;;;;;;;8.66;nan;100228.59;5032054;28;19917;-87
2023/04/11 04:05:56;;;;;;;;;;;;;;;8.67;nan;100221.50;5029957;28;19913;-86
2023/04/11 04:08:24;;;;;;;;;;;;;;;8.66;nan;100207.50;5030081;28;19959;-87
2023/04/11 04:10:52;;;;;;;;;;;;;;;8.60;nan;100201.97;5026591;28;19913;-87
2023/04/11 04:13:18;;;;;;;;;;;;;;;8.56;nan;100203.28;5025011;28;19918;-86
2023/04/11 04:15:43;;;;;;;;;;;;;;;8.51;nan;100198.44;5032519;28;20401;-87
2023/04/11 04:18:10;;;;;;;;;;;;;;;8.47;nan;100194.44;5025072;28;19913;-87
2023/04/11 04:20:35;;;;;;;;;;;;;;;8.38;nan;100195.25;5024876;28;19920;-87
2023/04/11 04:23:03;;;;;;;;;;;;;;;8.35;nan;100191.13;5033502;28;19913;-86
2023/04/11 04:25:29;;;;;;;;;;;;;;;8.37;nan;100204.16;5034864;28;19966;-87
2023/04/11 04:27:56;;;;;;;;;;;;;;;8.40;nan;100188.09;5038418;28;19913;-86
2023/04/11 04:30:22;;;;;;;;;;;;;;;8.39;nan;100175.84;5031467;28;19917;-87
2023/04/11 04:32:53;;;;;;;;;;;;;;;8.32;nan;100148.41;5019651;28;19913;-87
2023/04/11 04:35:19;;;;;;;;;;;;;;;8.28;nan;100164.53;5031508;28;19923;-87
2023/04/11 04:37:44;;;;;;;;;;;;;;;8.25;nan;100169.28;5028302;28;20410;-87
2023/04/11 04:40:12;;;;;;;;;;;;;;;8.26;nan;100177.00;5027822;28;19920;-86
2023/04/11 04:42:40;;;;;;;;;;;;;;;8.27;nan;100183.94;5017495;28;19970;-86
2023/04/11 04:45:06;;;;;;;;;;;;;;;8.27;nan;100198.91;5039508;28;20398;-86
2023/04/11 04:47:32;;;;;;;;;;;;;;;8.27;nan;100204.16;5040859;28;19917;-86
2023/04/11 04:49:58;;;;;;;;;;;;;;;8.29;nan;100218.88;5039472;28;19912;-86
2023/04/11 04:52:24;;;;;;;;;;;;;;;8.32;nan;100219.53;5039738;28;19927;-86
2023/04/11 04:54:50;;;;;;;;;;;;;;;8.36;nan;100215.66;5050679;28;20290;-85
2023/04/11 04:57:15;;;;;;;;;;;;;;;8.38;nan;100206.63;5054770;28;19916;-86
2023/04/11 04:59:40;;;;;;;;;;;;;;;8.42;nan;100200.13;5043539;28;19921;-85
2023/04/11 05:02:05;;;;;;;;;;;;;;;8.44;nan;100210.53;5038122;28;19925;-85
2023/04/11 05:04:33;;;;;;;;;;;;;;;8.45;nan;100206.91;5027501;28;19913;-86
2023/04/11 05:06:58;;;;;;;;;;;;;;;8.46;nan;100227.00;5035248;28;19991;-85
2023/04/11 05:09:23;;;;;;;;;;;;;;;8.47;nan;100220.78;5037576;28;20408;-86
2023/04/11 05:11:49;;;;;;;;;;;;;;;8.52;nan;100228.25;5043716;28;19919;-85
2023/04/11 05:14:14;;;;;;;;;;;;;;;8.53;nan;100235.97;5052815;28;19920;-85
2023/04/11 05:16:43;;;;;;;;;;;;;;;8.55;nan;100238.50;5042885;28;19921;-84
2023/04/11 05:19:08;;;;;;;;;;;;;;;8.51;nan;100259.03;5047561;28;19940;-85
2023/04/11 05:21:33;;;;;;;;;;;;;;;8.51;nan;100253.78;5046427;28;19921;-85
2023/04/11 05:23:59;;;;;;;;;;;;;;;8.55;nan;100262.22;5043608;28;19920;-85
2023/04/11 05:26:24;;;;;;;;;;;;;;;8.58;nan;100254.00;5043833;28;19946;-85
2023/04/11 05:28:49;;;;;;;;;;;;;;;8.62;nan;100255.38;5051752;28;19912;-85
2023/04/11 05:31:15;;;;;;;;;;;;;;;8.63;nan;100271.06;5044781;28;19952;-84
2023/04/11 05:33:42;;;;;;;;;;;;;;;8.66;nan;100272.56;5053334;28;19920;-84
2023/04/11 05:36:07;;;;;;;;;;;;;;;8.68;nan;100268.81;5035160;28;20396;-85
2023/04/11 05:38:32;;;;;;;;;;;;;;;8.66;nan;100268.13;5025555;28;19917;-85
2023/04/11 05:40:58;;;;;;;;;;;;;;;8.69;nan;100273.09;5032987;28;19920;-85
2023/04/11 05:43:23;;;;;;;;;;;;;;;8.69;nan;100278.38;5033244;28;19928;-84
2023/04/11 05:45:49;;;;;;;;;;;;;;;8.70;nan;100282.69;5018743;28;19928;-85
2023/04/11 05:48:14;;;;;;;;;;;;;;;8.71;nan;100283.50;5018254;28;19919;-84
2023/04/11 05:50:40;;;;;;;;;;;;;;;8.69;nan;100291.53;5034948;28;19960;-84
2023/04/11 05:53:05;;;;;;;;;;;;;;;8.72;nan;100290.41;5035329;28;19957;-84
2023/04/11 05:55:30;;;;;;;;;;;;;;;8.74;nan;100285.84;5012573;28;19943;-84
2023/04/11 05:57:55;;;;;;;;;;;;;;;8.80;nan;100305.53;5030242;28;19917;-85
2023/04/11 06:00:23;;;;;;;;;;;;;;;8.88;nan;100297.72;5042652;28;20128;-85
2023/04/11 06:02:49;;;;;;;;;;;;;;;8.90;nan;100301.88;5020524;28;19913;-85
2023/04/11 06:05:16;;;;;;;;;;;;;;;8.94;nan;100302.41;5021906;28;19917;-84
2023/04/11 06:07:42;;;;;;;;;;;;;;;8.97;nan;100302.13;5020178;28;19921;-84
2023/04/11 06:10:08;;;;;;;;;;;;;;;8.98;nan;100316.13;5025676;28;19924;-85
2023/04/11 06:12:33;;;;;;;;;;;;;;;8.95;nan;100327.78;5028192;28;19920;-84
2023/04/11 06:14:58;;;;;;;;;;;;;;;8.99;nan;100331.81;5023710;28;20367;-84
2023/04/11 06:17:24;;;;;;;;;;;;;;;9.03;nan;100327.06;5031274;28;19926;-85
2023/04/11 06:19:49;;;;;;;;;;;;;;;9.04;nan;100331.38;5021750;28;19917;-85
2023/04/11 06:22:14;;;;;;;;;;;;;;;9.10;nan;100333.41;5035688;28;19940;-84
2023/04/11 06:24:40;;;;;;;;;;;;;;;9.16;nan;100337.28;5058100;28;19966;-84
2023/04/11 06:27:08;;;;;;;;;;;;;;;9.23;nan;100330.44;5047054;28;19913;-84
2023/04/11 06:29:34;;;;;;;;;;;;;;;9.27;nan;100342.34;5053706;28;20512;-84
2023/04/11 06:31:59;;;;;;;;;;;;;;;9.27;nan;100342.34;5048643;28;19916;-84
2023/04/11 06:34:24;;;;;;;;;;;;;;;9.28;nan;100342.19;5033770;28;19921;-84
2023/04/11 06:36:50;;;;;;;;;;;;;;;9.32;nan;100354.13;5048290;28;19999;-85
2023/04/11 06:39:18;;;;;;;;;;;;;;;9.42;nan;100355.88;5024558;28;20256;-85
2023/04/11 06:41:45;;;;;;;;;;;;;;;9.57;nan;100357.03;5024663;28;19918;-85
2023/04/11 06:44:10;;;;;;;;;;;;;;;9.74;nan;100348.28;5022990;28;19921;-85
2023/04/11 06:46:36;;;;;;;;;;;;;;;9.89;nan;100358.31;5033243;28;19921;-85
2023/04/11 06:49:02;;;;;;;;;;;;;;;10.04;nan;100367.38;5027159;28;20330;-84
2023/04/11 06:51:27;;;;;;;;;;;;;;;10.15;nan;100371.56;5016625;28;19921;-86
2023/04/11 06:53:53;;;;;;;;;;;;;;;10.20;nan;100379.88;5032267;28;20126;-85
2023/04/11 06:56:18;;;;;;;;;;;;;;;10.31;nan;100390.22;5042982;28;19917;-85
2023/04/11 06:58:43;;;;;;;;;;;;;;;10.50;nan;100389.22;5053283;28;19921;-85
2023/04/11 07:01:08;;;;;;;;;;;;;;;10.66;nan;100393.78;5044737;28;20007;-85
2023/04/11 07:03:34;;;;;;;;;;;;;;;10.79;nan;100394.19;5048995;28;20366;-85
2023/04/11 07:05:59;;;;;;;;;;;;;;;10.91;nan;100389.47;5055262;28;19923;-85
2023/04/11 07:08:25;;;;;;;;;;;;;;;10.89;nan;100396.72;5049727;28;19923;-84
2023/04/11 07:10:50;;;;;;;;;;;;;;;10.93;nan;100407.84;5048753;28;19943;-85
2023/04/11 07:13:15;;;;;;;;;;;;;;;10.88;nan;100415.41;5053422;28;19917;-85
2023/04/11 07:15:40;;;;;;;;;;;;;;;11.02;nan;100412.19;5052950;28;20070;-84
2023/04/11 07:18:06;;;;;;;;;;;;;;;10.88;nan;100405.66;5038373;28;19913;-85
2023/04/11 07:20:32;;;;;;;;;;;;;;;10.88;nan;100415.41;5035070;28;19913;-85
2023/04/11 07:22:57;;;;;;;;;;;;;;;10.81;nan;100416.03;5033019;28;19916;-85
2023/04/11 07:25:29;;;;;;;;;;;;;;;11.11;nan;100413.03;5050707;28;19917;-84
2023/04/11 07:27:54;;;;;;;;;;;;;;;11.86;nan;100413.97;5049649;28;19920;-86
2023/04/11 07:30:20;;;;;;;;;;;;;;;12.33;nan;100412.56;5046667;28;20011;-85
2023/04/11 07:32:45;;;;;;;;;;;;;;;12.11;nan;100414.88;5048425;28;19913;-84
2023/04/11 07:35:10;;;;;;;;;;;;;;;11.77;nan;100422.06;5044886;28;19917;-87
2023/04/11 07:37:36;;;;;;;;;;;;;;;11.36;nan;100420.09;5044614;28;19913;-85
2023/04/11 07:40:05;;;;;;;;;;;;;;;11.42;nan;100406.25;5041096;28;19921;-85
2023/04/11 07:42:30;;;;;;;;;;;;;;;11.80;nan;100411.16;5055275;28;19919;-86
2023/04/11 07:44:55;;;;;;;;;;;;;;;12.44;nan;100414.03;5052151;28;20600;-85
2023/04/11 07:47:38;;;;;;;;;;;;;;;;;;;;;
2023/04/11 07:50:09;;;;;;;;;;;;;;;12.90;nan;100419.63;5052174;28;19971;-85
2023/04/11 07:52:37;;;;;;;;;;;;;;;12.71;nan;100420.81;5030061;28;20158;-87
2023/04/11 07:57:28;;;;;;;;;;;;;;;12.61;nan;100425.44;5100760;22;19982;-82
2023/04/11 07:59:53;;;;;;;;;;;;;;;12.35;nan;100415.03;5055182;28;19916;-85
2023/04/11 08:04:53;;;;;;;;;;;;;;;12.91;nan;100414.13;5026513;28;19982;-84
2023/04/11 08:07:27;;;;;;;;;;;;;;;13.05;nan;100415.25;5033103;28;19952;-84
2023/04/11 08:09:52;;;;;;;;;;;;;;;13.07;nan;100423.06;5026978;28;19939;-84
2023/04/11 08:12:18;;;;;;;;;;;;;;;12.85;nan;100425.44;5033476;28;19929;-84
2023/04/11 08:14:52;;;;;;;;;;;;;;;12.40;nan;100431.28;5034526;28;20021;-84
2023/04/11 08:17:24;;;;;;;;;;;;;;;12.40;nan;100415.38;5033205;28;20122;-84
2023/04/11 08:19:56;;;;;;;;;;;;;;;12.52;nan;100419.34;5031486;28;19917;-84
2023/04/11 08:22:26;;;;;;;;;;;;;;;13.04;nan;100407.44;5018354;28;20424;-85
2023/04/11 08:24:57;;;;;;;;;;;;;;;13.33;nan;100417.53;5022891;28;20028;-84
2023/04/11 08:27:29;;;;;;;;;;;;;;;13.67;nan;100414.53;5025165;28;19999;-84
2023/04/11 08:30:07;;;;;;;;;;;;;;;13.97;nan;100415.50;5018824;28;20442;-85
2023/04/11 08:35:28;;;;;;;;;;;;;;;13.87;nan;100422.91;5033683;28;19924;-84
2023/04/11 08:38:02;;;;;;;;;;;;;;;13.39;nan;100408.84;5025998;28;19921;-85
2023/04/11 08:40:50;;;;;;;;;;;;;;;12.83;nan;100413.34;5007604;28;19948;-85
2023/04/11 08:43:20;;;;;;;;;;;;;;;12.26;nan;100407.09;5016511;28;19917;-85
2023/04/11 08:46:01;;;;;;;;;;;;;;;11.88;nan;100416.50;5025488;28;19948;-85
2023/04/11 08:48:31;;;;;;;;;;;;;;;11.67;nan;100416.91;5029876;28;19921;-84
2023/04/11 08:51:11;;;;;;;;;;;;;;;11.46;nan;100428.78;5013832;28;19928;-84
2023/04/11 08:53:51;;;;;;;;;;;;;;;11.46;nan;100419.97;5027287;28;19980;-84
2023/04/11 08:56:24;;;;;;;;;;;;;;;11.59;nan;100419.53;5035154;28;19950;-84
2023/04/11 08:59:19;;;;;;;;;;;;;;;11.89;nan;100426.94;5033774;28;19917;-84
2023/04/11 09:01:52;;;;;;;;;;;;;;;11.99;nan;100418.84;5020808;28;19929;-84
2023/04/11 09:04:37;;;;;;;;;;;;;;;11.81;nan;100420.75;5025715;28;19973;-85
2023/04/11 09:07:41;;;;;;;;;;;;;;;11.65;nan;100419.69;5034389;28;19948;-83
2023/04/11 09:10:19;;;;;;;;;;;;;;;11.64;nan;100423.34;5017358;28;19916;-85
2023/04/11 09:12:48;;;;;;;;;;;;;;;12.30;nan;100420.84;5025181;28;19932;-84
2023/04/11 09:15:30;;;;;;;;;;;;;;;12.31;nan;100419.84;5014430;28;19925;-84
2023/04/11 09:17:56;;;;;;;;;;;;;;;13.21;nan;100417.03;5034373;28;19944;-84
2023/04/11 09:20:25;;;;;;;;;;;;;;;14.32;nan;100415.06;5023859;28;19921;-83
2023/04/11 09:22:51;;;;;;;;;;;;;;;13.96;nan;100419.16;5037342;28;19916;-83
2023/04/11 09:25:17;;;;;;;;;;;;;;;13.94;nan;100423.84;5038777;28;19932;-83
2023/04/11 09:27:43;;;;;;;;;;;;;;;13.84;nan;100414.44;5033060;28;19917;-84
2023/04/11 09:30:26;;;;;;;;;;;;;;;13.69;nan;100409.88;5040699;28;19920;-82
2023/04/11 09:32:52;;;;;;;;;;;;;;;12.88;nan;100417.13;5035895;28;19921;-84
2023/04/11 09:35:23;;;;;;;;;;;;;;;12.50;nan;100416.84;5031331;28;19917;-83
2023/04/11 09:37:57;;;;;;;;;;;;;;;12.19;nan;100423.81;5035599;28;19916;-84
2023/04/11 09:40:25;;;;;;;;;;;;;;;11.97;nan;100427.94;5034922;28;20441;-84
2023/04/11 09:42:59;;;;;;;;;;;;;;;11.69;nan;100426.34;5030949;28;19963;-85
2023/04/11 09:45:25;;;;;;;;;;;;;;;10.93;nan;100437.75;5031326;28;19967;-83
2023/04/11 09:47:51;;;;;;;;;;;;;;;10.39;nan;100443.19;5031632;28;19929;-85
2023/04/11 09:50:17;;;;;;;;;;;;;;;10.05;nan;100463.28;5033492;28;19971;-85
2023/04/11 09:52:43;;;;;;;;;;;;;;;9.90;nan;100469.09;5033831;28;19929;-84
2023/04/11 09:55:10;;;;;;;;;;;;;;;9.79;nan;100466.66;5037708;28;19971;-84
2023/04/11 09:57:37;;;;;;;;;;;;;;;9.76;nan;100459.84;5037791;28;19917;-85
2023/04/11 10:00:18;;;;;;;;;;;;;;;9.72;nan;100462.94;5037638;28;19924;-84
2023/04/11 10:02:44;;;;;;;;;;;;;;;10.02;nan;100469.72;5032637;28;19921;-83
2023/04/11 10:05:11;;;;;;;;;;;;;;;10.25;nan;100451.63;5041811;28;19928;-83
2023/04/11 10:07:43;;;;;;;;;;;;;;;10.55;nan;100462.78;5038571;28;19921;-84
2023/04/11 10:10:09;;;;;;;;;;;;;;;10.97;nan;100462.09;5029103;28;19918;-83
2023/04/11 10:12:35;;;;;;;;;;;;;;;11.18;nan;100459.91;5033610;28;19974;-84
2023/04/11 10:15:07;;;;;;;;;;;;;;;11.38;nan;100462.31;5031104;28;20392;-83
2023/04/11 10:17:33;;;;;;;;;;;;;;;12.04;nan;100466.88;5032013;28;21712;-83
2023/04/11 10:19:58;;;;;;;;;;;;;;;13.58;nan;100463.38;5036707;28;19924;-84
2023/04/11 10:22:39;;;;;;;;;;;;;;;15.01;nan;100452.22;5031658;28;19995;-83
2023/04/11 10:25:23;;;;;;;;;;;;;;;14.82;nan;100459.72;5033139;28;20417;-83
2023/04/11 10:27:52;;;;;;;;;;;;;;;14.32;nan;100460.28;5010794;28;19971;-83
2023/04/11 10:30:38;;;;;;;;;;;;;;;13.47;nan;100466.44;5026701;28;19927;-83
2023/04/11 10:33:10;;;;;;;;;;;;;;;12.38;nan;100473.06;5029591;28;19921;-84
2023/04/11 10:36:11;;;;;;;;;;;;;;;11.80;nan;100466.78;5029336;28;20314;-84
2023/04/11 10:38:40;;;;;;;;;;;;;;;11.93;nan;100461.06;5016405;28;19956;-83
2023/04/11 10:41:32;;;;;;;;;;;;;;;12.11;nan;100449.31;5037030;28;20417;-83
2023/04/11 10:44:17;;;;;;;;;;;;;;;13.30;nan;100458.53;5042966;28;20016;-83
2023/04/11 10:46:46;;;;;;;;;;;;;;;16.10;nan;100450.53;5029596;28;19913;-84
2023/04/11 10:49:12;;;;;;;;;;;;;;;18.18;nan;100446.25;5033485;28;20000;-85
2023/04/11 10:51:37;;;;;;;;;;;;;;;19.23;nan;100443.72;5029870;28;20449;-83
2023/04/11 10:54:03;;;;;;;;;;;;;;;20.52;nan;100452.56;5030528;28;20181;-84
2023/04/11 10:56:47;;;;;;;;;;;;;;;19.36;nan;100444.75;5027171;28;19925;-85
2023/04/11 10:59:31;;;;;;;;;;;;;;;17.29;nan;100452.50;5039984;28;19944;-85
2023/04/11 11:02:00;;;;;;;;;;;;;;;15.08;nan;100451.31;5051553;28;19917;-83
2023/04/11 11:04:32;;;;;;;;;;;;;;;14.29;nan;100458.00;5035492;28;19993;-84
2023/04/11 11:06:57;;;;;;;;;;;;;;;14.07;nan;100438.38;5034410;28;19968;-83
2023/04/11 11:09:23;;;;;;;;;;;;;;;15.14;nan;100438.28;5030126;28;20011;-84
2023/04/11 11:12:24;;;;;;;;;;;;;;;17.51;nan;100439.84;5030568;28;19921;-84
2023/04/11 11:14:49;;;;;;;;;;;;;;;20.04;nan;100445.03;4987659;28;19960;-84
2023/04/11 11:17:15;;;;;;;;;;;;;;;20.50;nan;100433.16;5012306;28;19928;-83
2023/04/11 11:19:44;;;;;;;;;;;;;;;20.91;nan;100429.09;5030894;28;19921;-84
2023/04/11 11:22:24;;;;;;;;;;;;;;;21.04;nan;100425.44;5030667;28;20366;-85
2023/04/11 11:24:49;;;;;;;;;;;;;;;21.34;nan;100435.47;5029760;28;19917;-84
2023/04/11 11:27:22;;;;;;;;;;;;;;;21.11;nan;100422.69;5031455;28;19928;-84
2023/04/11 11:29:47;;;;;;;;;;;;;;;21.28;nan;100417.53;5031233;28;20226;-85
2023/04/11 11:32:20;;;;;;;;;;;;;;;21.24;nan;100422.53;5026234;28;19994;-84
2023/04/11 11:34:45;;;;;;;;;;;;;;;21.67;nan;100413.56;5030275;28;19956;-85
2023/04/11 11:37:10;;;;;;;;;;;;;;;21.98;nan;100411.66;5032585;28;19991;-83
2023/04/11 11:39:36;;;;;;;;;;;;;;;21.97;nan;100408.13;5033226;28;19913;-85
2023/04/11 11:42:02;;;;;;;;;;;;;;;21.19;nan;100422.41;5033689;28;19917;-84
2023/04/11 11:44:28;;;;;;;;;;;;;;;19.60;nan;100417.19;5025298;28;20290;-85
2023/04/11 11:47:11;;;;;;;;;;;;;;;18.44;nan;100417.84;5032911;28;19952;-85
2023/04/11 11:49:44;;;;;;;;;;;;;;;17.49;nan;100422.38;5028684;28;19917;-84
2023/04/11 11:52:10;;;;;;;;;;;;;;;16.86;nan;100427.81;5032641;28;19925;-84
2023/04/11 11:54:43;;;;;;;;;;;;;;;16.93;nan;100434.00;5031187;28;20048;-85
2023/04/11 11:57:08;;;;;;;;;;;;;;;17.93;nan;100432.63;5032645;28;19917;-84
2023/04/11 11:59:33;;;;;;;;;;;;;;;18.77;nan;100439.28;5035898;28;20294;-84
2023/04/11 12:01:59;;;;;;;;;;;;;;;18.61;nan;100429.78;5025693;28;19920;-85
2023/04/11 12:04:26;;;;;;;;;;;;;;;18.86;nan;100440.72;5033421;28;19975;-84
2023/04/11 12:06:51;;;;;;;;;;;;;;;18.57;nan;100433.13;5034210;28;20134;-85
2023/04/11 12:09:17;;;;;;;;;;;;;;;18.99;nan;100434.50;5036409;28;20400;-85
2023/04/11 12:11:43;;;;;;;;;;;;;;;19.46;nan;100432.53;5024557;28;19925;-84
2023/04/11 12:14:09;;;;;;;;;;;;;;;18.52;nan;100427.53;5030813;28;19925;-85
2023/04/11 12:16:37;;;;;;;;;;;;;;;18.08;nan;100435.13;5031110;28;20522;-84
2023/04/11 12:19:03;;;;;;;;;;;;;;;18.28;nan;100439.66;5032493;28;19924;-85
2023/04/11 12:21:28;;;;;;;;;;;;;;;18.28;nan;100435.13;5030962;28;19917;-85
2023/04/11 12:23:54;;;;;;;;;;;;;;;17.68;nan;100424.28;5033158;28;19921;-84
2023/04/11 12:26:21;;;;;;;;;;;;;;;17.66;nan;100412.94;5036197;28;19925;-85
2023/04/11 12:28:47;;;;;;;;;;;;;;;18.00;nan;100416.59;5034638;28;19921;-85
2023/04/11 12:31:13;;;;;;;;;;;;;;;18.12;nan;100414.16;5034937;28;19928;-84
2023/04/11 12:33:38;;;;;;;;;;;;;;;18.00;nan;100406.72;5032344;28;20023;-84
2023/04/11 12:36:07;;;;;;;;;;;;;;;17.68;nan;100402.06;5030982;28;20447;-84
2023/04/11 12:38:32;;;;;;;;;;;;;;;17.57;nan;100393.63;5034059;28;19917;-85
2023/04/11 12:40:58;;;;;;;;;;;;;;;17.50;nan;100402.66;5033346;28;20056;-84
2023/04/11 12:43:23;;;;;;;;;;;;;;;16.93;nan;100408.13;5030845;28;19964;-85
2023/04/11 12:45:48;;;;;;;;;;;;;;;16.56;nan;100409.25;5031432;28;20267;-84
2023/04/11 12:48:14;;;;;;;;;;;;;;;16.14;nan;100416.31;5024731;28;19917;-84
2023/04/11 12:50:39;;;;;;;;;;;;;;;16.25;nan;100412.28;5028747;28;19917;-84
2023/04/11 12:53:05;;;;;;;;;;;;;;;16.23;nan;100409.84;5033005;28;20106;-84
2023/04/11 12:55:30;;;;;;;;;;;;;;;16.47;nan;100413.94;5044530;28;19917;-84
2023/04/11 12:57:55;;;;;;;;;;;;;;;16.59;nan;100419.56;5030401;28;19956;-84
2023/04/11 13:00:20;;;;;;;;;;;;;;;16.63;nan;100423.47;5032395;28;19916;-84
2023/04/11 13:02:47;;;;;;;;;;;;;;;16.79;nan;100413.56;5032150;28;19998;-84
2023/04/11 13:05:13;;;;;;;;;;;;;;;16.75;nan;100410.44;5029699;28;19917;-84
2023/04/11 13:07:39;;;;;;;;;;;;;;;16.82;nan;100405.16;5030670;28;20102;-84
2023/04/11 13:10:06;;;;;;;;;;;;;;;16.90;nan;100413.00;5031694;28;19964;-84
2023/04/11 13:12:33;;;;;;;;;;;;;;;16.65;nan;100408.09;5030471;28;19976;-84
2023/04/11 13:14:58;;;;;;;;;;;;;;;16.80;nan;100409.88;5032351;28;19952;-84
2023/04/11 13:17:23;;;;;;;;;;;;;;;16.94;nan;100409.75;5032895;28;19920;-84
2023/04/11 13:19:48;;;;;;;;;;;;;;;17.16;nan;100407.84;5032624;28;19940;-84
2023/04/11 13:22:13;;;;;;;;;;;;;;;17.44;nan;100412.28;5023545;28;19924;-84
2023/04/11 13:24:38;;;;;;;;;;;;;;;17.28;nan;100404.59;5032085;28;19917;-84
2023/04/11 13:27:04;;;;;;;;;;;;;;;17.08;nan;100404.50;5029573;28;20192;-84
2023/04/11 13:29:29;;;;;;;;;;;;;;;16.51;nan;100398.34;5028788;28;19970;-85